Etusivu
METAR-TAF:

METAR-TAF

Lentoasemat :

Baraboo Wisconsin Dells Airport

Baraboo / Wisconsin Dells, Wisconsin, Yhdysvallat

Leveyspiiri: 43-31-19N, Pituuspiiri: 089-46-15W, korkeus merenpinnasta: 298 m

Tämänhetkinen sää

Tämä raportti tehtiin 12 minuuttia sitten, kello 10.35 UTC
Tuuli 11 kn etelästä puuskistuen 16 kn:hen
Lämpötila -11°C
Kosteus 66%
Ilmanpaine 1018 hPa
Näkyvyys: 16.1 km
Hajonneita pilviä 12000 ft:n korkeudessa

METAR: KDLL 131035Z AUTO 19011G16KT 10SM BKN120 M11/M16 A3007 RMK AO2 T11071156

Aika: 04:47 (10:47 UTC)


TAF: puuttuu

Säähavainnot ja -ennusteet yli 4000 lentoasemalta (METAR- ja TAF-raportit).

Käytössä olevat sääasemat on merkitty karttaan keltaisilla ja punaisilla pisteillä.

Aseta hiiri pisteen päälle nähdäksesi sääaseman nimen.

Klikkaa sitten nähdäksesi säähavainnot ja -ennusteet.

Kartan vaihtaminen: klikkaa mustalla rastilla varustettuja vihreitä pisteitä, niin voit zoomata sisään; viivalla varustettua vihreää pistettä, niin voit zoomata ulos tai vihreitä nuolia, niin pääset viereisille kartoille.


METAR-TAF: